Time;durP1;ratioP1;P1;durP2;ratioP2;P2;SDS_P1;SDS_P2;PMS_P1;PMS_P2;Temp;Humidity;BMP_temperature;BMP_pressure;BME280_temperature;BME280_humidity;BME280_pressure;Samples;Min_cycle;Max_cycle;Signal;HPM_P1;HPM_P2
2023/06/16 00:01:01;;;;;;;6.97;5.95;;;;;;;20.03;45.53;93338.66;5011731;28;20102;-89
2023/06/16 00:03:27;;;;;;;6.88;5.72;;;;;;;20.02;45.63;93331.69;5026812;28;20095;-89
2023/06/16 00:05:52;;;;;;;7.22;5.53;;;;;;;20.02;45.54;93334.41;5027575;28;20049;-89
2023/06/16 00:08:19;;;;;;;7.45;6.00;;;;;;;20.01;45.60;93332.94;5016071;28;20030;-89
2023/06/16 00:10:44;;;;;;;6.88;6.18;;;;;;;20.00;45.72;93328.72;5010717;28;20037;-89
2023/06/16 00:13:10;;;;;;;7.28;5.95;;;;;;;20.01;45.58;93332.94;5010579;28;20369;-90
2023/06/16 00:15:35;;;;;;;6.22;5.63;;;;;;;20.00;45.71;93337.69;5027372;28;20522;-89
2023/06/16 00:18:02;;;;;;;6.55;5.47;;;;;;;20.01;45.67;93339.16;5010995;28;20045;-89
2023/06/16 00:20:27;;;;;;;6.25;5.55;;;;;;;20.00;45.67;93334.94;5009670;28;20045;-88
2023/06/16 00:22:54;;;;;;;7.22;5.82;;;;;;;19.99;45.71;93338.94;4994644;28;20054;-89
2023/06/16 00:25:20;;;;;;;6.93;6.13;;;;;;;20.00;45.57;93326.72;5002771;28;20096;-89
2023/06/16 00:27:45;;;;;;;7.05;5.70;;;;;;;20.02;45.82;93331.69;5028386;28;20038;-89
2023/06/16 00:30:11;;;;;;;8.10;6.03;;;;;;;20.01;45.73;93322.69;4994439;28;20037;-89
2023/06/16 00:32:37;;;;;;;6.47;5.50;;;;;;;20.02;45.75;93339.91;4994204;28;20034;-89
2023/06/16 00:35:02;;;;;;;6.80;6.10;;;;;;;20.03;45.94;93352.38;5007344;28;20092;-90
2023/06/16 00:37:27;;;;;;;6.18;5.57;;;;;;;20.04;45.79;93351.09;5023345;28;20384;-89
2023/06/16 00:39:53;;;;;;;7.28;5.88;;;;;;;20.04;45.87;93354.59;5010709;28;20478;-89
2023/06/16 00:42:19;;;;;;;6.72;5.55;;;;;;;20.05;45.64;93349.84;4993752;28;20137;-90
2023/06/16 00:44:44;;;;;;;7.82;5.80;;;;;;;20.04;45.47;93338.13;5010559;28;20065;-89
2023/06/16 00:47:09;;;;;;;8.88;5.90;;;;;;;20.03;45.84;93333.91;5010032;28;20045;-89
2023/06/16 00:49:36;;;;;;;6.55;5.65;;;;;;;20.03;45.76;93322.94;5006528;28;20057;-89
2023/06/16 00:52:02;;;;;;;6.97;5.70;;;;;;;20.02;46.01;93326.19;5009391;28;20041;-89
2023/06/16 00:54:27;;;;;;;7.25;6.28;;;;;;;19.98;45.99;93326.50;4994006;28;20064;-89
2023/06/16 00:56:52;;;;;;;7.72;5.85;;;;;;;20.00;45.82;93326.72;5010110;28;20056;-89
2023/06/16 00:59:21;;;;;;;8.07;5.60;;;;;;;19.98;46.19;93325.75;5006447;28;20041;-89
2023/06/16 01:01:48;;;;;;;6.68;5.88;;;;;;;19.97;45.94;93327.75;4993367;28;20038;-90
2023/06/16 01:04:13;;;;;;;6.78;5.53;;;;;;;19.98;46.12;93329.22;4993874;28;20044;-88
2023/06/16 01:06:43;;;;;;;6.20;5.50;;;;;;;19.99;46.19;93316.25;5025732;28;20041;-89
2023/06/16 01:09:21;;;;;;;9.40;6.30;;;;;;;19.99;46.00;93327.22;5026056;28;20049;-89
2023/06/16 01:12:03;;;;;;;7.07;5.70;;;;;;;19.97;46.18;93322.25;5008497;28;20570;-90
2023/06/16 01:14:37;;;;;;;6.60;5.32;;;;;;;19.96;46.07;93326.28;5011221;28;20080;-89
2023/06/16 01:17:05;;;;;;;9.38;6.70;;;;;;;19.96;46.27;93322.78;5010107;28;20038;-88
2023/06/16 01:19:53;;;;;;;6.68;5.80;;;;;;;19.96;46.13;93318.03;5001121;28;20120;-90
2023/06/16 01:22:43;;;;;;;7.40;5.95;;;;;;;19.96;46.18;93318.03;5011867;28;20502;-89
2023/06/16 01:25:08;;;;;;;7.27;5.37;;;;;;;19.94;46.22;93311.59;5027440;28;20050;-89
2023/06/16 01:27:34;;;;;;;7.75;5.95;;;;;;;19.94;46.18;93309.59;5045901;28;20410;-89
2023/06/16 01:30:00;;;;;;;7.47;5.78;;;;;;;19.93;46.08;93307.38;5027139;28;20341;-89
2023/06/16 01:32:25;;;;;;;8.45;5.45;;;;;;;19.93;46.29;93307.38;5045474;28;20051;-89
2023/06/16 01:34:51;;;;;;;6.15;5.53;;;;;;;19.92;46.04;93306.63;5025625;28;20045;-89
2023/06/16 01:37:18;;;;;;;6.47;5.85;;;;;;;19.91;46.22;93313.41;5008831;28;20033;-89
2023/06/16 01:39:44;;;;;;;6.05;5.45;;;;;;;19.92;46.33;93312.13;4980281;28;20046;-89
2023/06/16 01:42:09;;;;;;;9.32;6.13;;;;;;;19.92;46.22;93305.91;5022204;28;20414;-89
2023/06/16 01:44:35;;;;;;;8.77;5.55;;;;;;;19.92;46.17;93305.91;5022318;28;20044;-89
2023/06/16 01:47:00;;;;;;;6.10;5.50;;;;;;;19.94;46.10;93306.09;5022634;28;20404;-89
2023/06/16 01:49:26;;;;;;;6.50;5.63;;;;;;;19.93;45.94;93308.09;5012007;28;20125;-89
2023/06/16 01:51:51;;;;;;;8.43;5.75;;;;;;;19.91;46.02;93305.19;5008252;28;20045;-90
2023/06/16 01:54:16;;;;;;;5.88;5.30;;;;;;;19.91;46.17;93307.91;5034293;28;20760;-89
2023/06/16 01:56:42;;;;;;;6.78;5.80;;;;;;;19.91;46.21;93309.91;5045590;28;20045;-89
2023/06/16 01:59:07;;;;;;;6.85;5.93;;;;;;;19.92;46.04;93309.38;5027622;28;20033;-89
2023/06/16 02:01:37;;;;;;;6.55;5.80;;;;;;;19.91;46.05;93298.94;5027990;28;20507;-89
2023/06/16 02:04:11;;;;;;;7.53;6.23;;;;;;;19.90;45.95;93302.94;4991361;28;20080;-89
2023/06/16 02:06:47;;;;;;;8.30;6.07;;;;;;;19.90;45.83;93300.94;5005793;28;20038;-89
2023/06/16 02:09:13;;;;;;;7.57;6.00;;;;;;;19.88;45.80;93300.72;4982839;28;20041;-89
2023/06/16 02:11:38;;;;;;;7.18;6.25;;;;;;;19.89;45.70;93307.69;5009366;28;20042;-89
2023/06/16 02:14:04;;;;;;;7.13;5.90;;;;;;;19.89;45.95;93302.22;5019548;28;22098;-90
2023/06/16 02:16:36;;;;;;;6.00;5.35;;;;;;;19.90;45.71;93306.44;5002270;28;20042;-89
2023/06/16 02:19:02;;;;;;;6.53;5.80;;;;;;;19.90;45.83;93302.94;4996049;28;20115;-89
2023/06/16 02:21:27;;;;;;;5.60;5.05;;;;;;;19.88;45.77;93300.00;5014212;28;20049;-89
2023/06/16 02:23:52;;;;;;;7.43;5.50;;;;;;;19.88;45.77;93292.50;5004526;28;20038;-89
2023/06/16 02:26:18;;;;;;;6.15;5.55;;;;;;;19.87;45.69;93290.28;5006532;28;20042;-89
2023/06/16 02:28:43;;;;;;;6.90;6.10;;;;;;;19.89;45.60;93301.47;5019217;28;20080;-89
2023/06/16 02:31:11;;;;;;;8.60;5.35;;;;;;;19.88;45.59;93300.72;5024883;28;20119;-90
2023/06/16 02:33:36;;;;;;;8.65;6.75;;;;;;;19.88;45.62;93302.72;5009559;28;20067;-89
2023/06/16 02:36:02;;;;;;;10.27;6.43;;;;;;;19.86;45.63;93300.50;5024969;28;20053;-90
2023/06/16 02:38:28;;;;;;;7.80;5.80;;;;;;;19.86;45.49;93303.25;5024202;28;20405;-89
2023/06/16 02:40:54;;;;;;;6.47;5.85;;;;;;;19.88;45.58;93302.72;5026240;28;20045;-89
2023/06/16 02:43:19;;;;;;;8.30;5.97;;;;;;;19.87;45.65;93307.47;4992311;28;20095;-89
2023/06/16 02:45:44;;;;;;;7.22;5.85;;;;;;;19.86;45.74;93308.75;4992304;28;20033;-89
2023/06/16 02:48:10;;;;;;;9.02;6.50;;;;;;;19.85;45.60;93299.75;5007193;28;20053;-88
2023/06/16 02:50:35;;;;;;;6.38;5.78;;;;;;;19.85;45.44;93305.25;5007636;28;20045;-89
2023/06/16 02:53:01;;;;;;;6.60;5.40;;;;;;;19.85;45.63;93304.50;5001039;28;20049;-89
2023/06/16 02:55:26;;;;;;;8.48;6.07;;;;;;;19.87;45.52;93301.25;5025388;28;20034;-89
2023/06/16 02:57:52;;;;;;;6.60;5.95;;;;;;;19.85;45.37;93299.75;5025143;28;20042;-88
2023/06/16 03:00:18;;;;;;;8.52;5.32;;;;;;;19.85;45.69;93310.00;5026076;28;20057;-89
2023/06/16 03:02:44;;;;;;;5.72;4.95;;;;;;;19.85;45.61;93296.28;5023613;28;20041;-89
2023/06/16 03:05:09;;;;;;;6.00;5.03;;;;;;;19.86;45.37;93311.47;5024013;28;20042;-89
2023/06/16 03:07:35;;;;;;;7.57;5.88;;;;;;;19.87;45.41;93306.72;5003737;28;20038;-89
2023/06/16 03:10:01;;;;;;;7.32;5.60;;;;;;;19.85;45.40;93305.25;5025377;28;20041;-89
2023/06/16 03:12:27;;;;;;;7.53;5.97;;;;;;;19.85;45.40;93310.75;5018647;28;20051;-89
2023/06/16 03:14:52;;;;;;;6.63;5.80;;;;;;;19.86;45.48;93308.75;5001157;28;20050;-89
2023/06/16 03:17:21;;;;;;;7.28;5.60;;;;;;;19.85;45.48;93308.00;5020885;28;20030;-88
2023/06/16 03:19:50;;;;;;;7.03;6.32;;;;;;;19.84;45.60;93305.78;5029459;28;20033;-89
2023/06/16 03:22:15;;;;;;;6.95;6.20;;;;;;;19.85;45.41;93299.03;4995138;28;20069;-89
2023/06/16 03:24:43;;;;;;;7.75;6.22;;;;;;;19.84;45.44;93309.25;5010105;28;20443;-90
2023/06/16 03:27:10;;;;;;;7.32;5.68;;;;;;;19.84;45.42;93309.25;5027994;28;20124;-89
2023/06/16 03:29:36;;;;;;;7.90;5.38;;;;;;;19.83;45.44;93305.03;4995548;28;20091;-89
2023/06/16 03:32:06;;;;;;;8.30;5.45;;;;;;;19.83;45.36;93310.53;5008446;28;20038;-89
2023/06/16 03:34:32;;;;;;;7.15;5.63;;;;;;;19.83;45.43;93304.28;5015242;28;20052;-89
2023/06/16 03:36:57;;;;;;;5.88;5.30;;;;;;;19.83;45.38;93307.03;5011560;28;20632;-88
2023/06/16 03:39:23;;;;;;;6.60;5.40;;;;;;;19.84;45.50;93309.25;5027764;28;20045;-89
2023/06/16 03:41:50;;;;;;;7.38;5.55;;;;;;;19.84;45.41;93314.75;5011571;28;20042;-89
2023/06/16 03:44:15;;;;;;;6.75;5.95;;;;;;;19.83;45.18;93316.00;5011124;28;20280;-89
2023/06/16 03:46:40;;;;;;;7.05;5.90;;;;;;;19.84;45.26;93314.00;5011712;28;20602;-89
2023/06/16 03:49:07;;;;;;;6.43;5.30;;;;;;;19.84;45.40;93312.00;5010130;28;20049;-90
2023/06/16 03:51:33;;;;;;;6.32;5.40;;;;;;;19.84;45.25;93322.22;5025325;28;20410;-88
2023/06/16 03:54:00;;;;;;;6.03;5.40;;;;;;;19.84;45.43;93324.97;5008460;28;20050;-89
2023/06/16 03:56:25;;;;;;;7.10;5.53;;;;;;;19.84;45.48;93319.50;5011221;28;20045;-89
2023/06/16 03:58:51;;;;;;;6.75;4.93;;;;;;;19.84;45.32;93322.22;5011296;28;20049;-89
2023/06/16 04:01:16;;;;;;;6.57;5.28;;;;;;;19.86;45.42;93325.19;4990052;28;20041;-89
2023/06/16 04:03:41;;;;;;;6.35;5.50;;;;;;;19.85;45.25;93321.72;5010670;28;20411;-89
2023/06/16 04:06:07;;;;;;;6.78;5.30;;;;;;;19.85;45.34;93327.19;4994233;28;20042;-89
2023/06/16 04:08:32;;;;;;;7.38;5.53;;;;;;;19.87;45.32;93323.94;4995093;28;20033;-89
2023/06/16 04:10:58;;;;;;;5.55;5.05;;;;;;;19.88;45.44;93328.16;5007453;28;20702;-88
2023/06/16 04:13:26;;;;;;;7.28;5.68;;;;;;;19.90;45.32;93324.91;5024973;28;20796;-89
2023/06/16 04:15:52;;;;;;;6.90;5.78;;;;;;;19.88;45.35;93328.16;5013576;28;20053;-89
2023/06/16 04:18:17;;;;;;;7.15;5.43;;;;;;;19.92;45.30;93336.09;4990896;28;20037;-88
2023/06/16 04:20:43;;;;;;;9.88;5.65;;;;;;;19.92;45.44;93327.84;5033885;28;20061;-89
2023/06/16 04:23:09;;;;;;;6.03;5.03;;;;;;;19.90;45.33;93328.38;5010470;28;20148;-89
2023/06/16 04:25:38;;;;;;;6.90;5.70;;;;;;;19.92;45.33;93331.31;5027259;28;20029;-88
2023/06/16 04:28:04;;;;;;;6.55;5.43;;;;;;;19.91;45.53;93326.38;4982603;28;20035;-88
2023/06/16 04:30:33;;;;;;;7.60;4.90;;;;;;;19.98;45.67;93331.25;5012686;28;20037;-89
2023/06/16 04:32:59;;;;;;;7.50;4.95;;;;;;;19.94;45.46;93339.03;4995683;28;20435;-88
2023/06/16 04:35:27;;;;;;;7.63;5.32;;;;;;;19.93;45.55;93329.31;5026574;28;20034;-89
2023/06/16 04:37:53;;;;;;;7.00;4.85;;;;;;;19.95;45.52;93340.50;5027039;28;20057;-89
2023/06/16 04:40:21;;;;;;;5.40;4.90;;;;;;;19.94;45.68;93331.53;4993519;28;20442;-89
2023/06/16 04:42:47;;;;;;;5.70;4.60;;;;;;;19.96;45.81;93331.75;4994211;28;20037;-90
2023/06/16 04:45:12;;;;;;;7.57;4.90;;;;;;;19.97;45.62;93330.50;4993629;28;20049;-89
2023/06/16 04:47:40;;;;;;;7.47;4.90;;;;;;;19.98;45.71;93331.97;5010685;28;20140;-90
2023/06/16 04:50:06;;;;;;;6.05;4.85;;;;;;;19.96;45.61;93331.75;4988633;28;20031;-90
2023/06/16 04:52:32;;;;;;;5.00;4.47;;;;;;;19.99;45.67;93330.72;4971972;28;20440;-89
2023/06/16 04:54:58;;;;;;;8.45;5.38;;;;;;;20.02;45.40;93326.19;4998150;28;20042;-90
2023/06/16 04:57:23;;;;;;;5.43;4.68;;;;;;;20.04;45.65;93331.91;4990913;28;20495;-90
2023/06/16 04:59:49;;;;;;;5.93;5.00;;;;;;;20.02;45.49;93332.41;4974328;28;20354;-90
2023/06/16 05:02:14;;;;;;;6.15;5.28;;;;;;;20.04;45.91;93329.16;4991749;28;20037;-90
2023/06/16 05:04:43;;;;;;;4.90;4.38;;;;;;;20.06;45.62;93327.38;5026650;28;20598;-89
2023/06/16 05:07:10;;;;;;;5.20;4.18;;;;;;;20.07;45.71;93330.84;5035009;28;20072;-90
2023/06/16 05:09:36;;;;;;;5.80;4.90;;;;;;;20.09;45.50;93333.81;5018651;28;20044;-90
2023/06/16 05:12:07;;;;;;;7.10;5.75;;;;;;;20.11;45.36;93326.53;5020447;28;20041;-90
2023/06/16 05:14:33;;;;;;;5.32;4.82;;;;;;;20.10;45.52;93324.31;5051281;28;20039;-90
2023/06/16 05:16:58;;;;;;;5.85;5.00;;;;;;;20.18;45.87;93331.41;5026867;28;20146;-90
2023/06/16 05:19:24;;;;;;;13.35;5.35;;;;;;;20.16;45.71;93333.94;5005799;28;20049;-90
2023/06/16 05:21:49;;;;;;;7.30;4.90;;;;;;;20.16;45.62;93336.66;5043219;28;20158;-89
2023/06/16 05:24:15;;;;;;;13.32;5.18;;;;;;;20.19;45.50;93332.13;5000055;28;20415;-90
2023/06/16 05:26:41;;;;;;;6.50;4.88;;;;;;;20.19;45.54;93334.88;4976745;28;20491;-90
2023/06/16 05:29:06;;;;;;;5.90;4.47;;;;;;;20.22;45.42;93336.59;4989703;28;20052;-90
2023/06/16 05:31:33;;;;;;;7.22;4.85;;;;;;;20.22;45.36;93336.59;5026723;28;20049;-89
2023/06/16 05:33:58;;;;;;;7.40;4.30;;;;;;;20.23;45.55;93340.06;5026689;28;20069;-90
2023/06/16 05:36:24;;;;;;;7.00;4.68;;;;;;;20.23;45.42;93335.31;5026169;28;20396;-89
2023/06/16 05:38:53;;;;;;;7.22;3.78;;;;;;;20.24;45.73;93342.28;5021188;28;20037;-90
2023/06/16 05:41:23;;;;;;;4.97;4.45;;;;;;;20.30;45.56;93331.22;5026669;28;20044;-90
2023/06/16 05:43:50;;;;;;;6.40;4.03;;;;;;;20.30;45.69;93325.72;4994720;28;20037;-90
2023/06/16 05:46:16;;;;;;;4.20;3.80;;;;;;;20.33;45.45;93335.66;4993507;28;20049;-90
2023/06/16 05:48:41;;;;;;;6.55;4.45;;;;;;;20.32;45.56;93337.69;5001278;28;20516;-90
2023/06/16 05:51:07;;;;;;;5.85;4.10;;;;;;;20.34;45.58;93329.66;4990090;28;20053;-89
2023/06/16 05:53:32;;;;;;;4.15;3.75;;;;;;;20.35;45.63;93331.09;4973799;28;20041;-90
2023/06/16 05:55:58;;;;;;;4.15;3.75;;;;;;;20.35;45.47;93331.09;4989069;28;20060;-90
2023/06/16 05:58:23;;;;;;;4.55;3.90;;;;;;;20.36;45.33;93329.84;4987806;28;20050;-90
2023/06/16 06:00:51;;;;;;;4.00;3.60;;;;;;;20.39;45.43;93337.06;5039655;28;20100;-90
2023/06/16 06:03:16;;;;;;;4.22;3.83;;;;;;;20.40;45.52;93332.31;5008292;28;20503;-90
2023/06/16 06:05:42;;;;;;;4.75;3.55;;;;;;;20.42;45.47;93327.03;5009803;28;20111;-89
2023/06/16 06:08:07;;;;;;;3.97;3.58;;;;;;;20.44;45.33;93330.00;5039519;28;20045;-90
2023/06/16 06:10:32;;;;;;;7.80;3.40;;;;;;;20.49;45.21;93323.69;5020967;28;20037;-89
2023/06/16 06:13:02;;;;;;;4.03;3.47;;;;;;;20.45;45.13;93328.75;5026790;28;20041;-90
2023/06/16 06:15:27;;;;;;;4.00;3.60;;;;;;;20.49;45.20;93318.19;4991826;28;20053;-89
2023/06/16 06:17:52;;;;;;;6.32;3.50;;;;;;;20.49;45.17;93329.16;5005075;28;20554;-89
2023/06/16 06:20:18;;;;;;;5.68;3.10;;;;;;;20.49;45.06;93332.66;5007978;28;20037;-90
2023/06/16 06:22:43;;;;;;;3.75;3.45;;;;;;;20.53;44.85;93329.59;5045504;28;20041;-89
2023/06/16 06:25:09;;;;;;;3.50;3.15;;;;;;;20.53;45.13;93326.84;5020165;28;20045;-90
2023/06/16 06:27:34;;;;;;;3.95;2.72;;;;;;;20.54;44.98;93342.06;5009512;28;20038;-89
2023/06/16 06:30:00;;;;;;;4.43;3.13;;;;;;;20.56;45.24;93336.06;5013120;28;20498;-89
2023/06/16 06:32:26;;;;;;;3.35;2.80;;;;;;;20.57;45.02;93329.28;5012417;28;20115;-89
2023/06/16 06:34:52;;;;;;;4.53;3.60;;;;;;;20.56;44.75;93331.31;5012940;28;20064;-89
2023/06/16 06:37:18;;;;;;;3.28;2.97;;;;;;;20.58;44.82;93336.97;4996552;28;20037;-89
2023/06/16 06:39:45;;;;;;;4.43;3.10;;;;;;;20.61;44.83;93333.19;5004468;28;20507;-89
2023/06/16 06:42:12;;;;;;;4.15;3.05;;;;;;;20.62;44.91;93333.94;5004107;28;20044;-90
2023/06/16 06:44:37;;;;;;;4.80;3.22;;;;;;;20.64;44.82;93334.13;5013438;28;20037;-88
2023/06/16 06:47:03;;;;;;;4.53;3.65;;;;;;;20.64;44.91;93339.63;5029086;28;20115;-89
2023/06/16 06:49:28;;;;;;;4.65;3.30;;;;;;;20.62;44.61;93340.16;5017149;28;20581;-90
2023/06/16 06:51:54;;;;;;;5.18;3.45;;;;;;;20.66;44.71;93351.56;5008388;28;20064;-90
2023/06/16 06:54:19;;;;;;;4.28;3.40;;;;;;;20.64;44.58;93348.63;5038441;28;20041;-92
2023/06/16 06:56:45;;;;;;;3.85;3.20;;;;;;;20.66;44.60;93337.84;5000368;28;20041;-91
2023/06/16 07:00:03;;;;;;;3.72;3.40;;;;;;;20.69;44.71;93344.28;5052088;27;20651;-92
2023/06/16 07:02:28;;;;;;;5.65;3.30;;;;;;;20.68;44.78;93343.56;5021077;28;20049;-90
2023/06/16 07:04:54;;;;;;;4.40;3.92;;;;;;;20.68;44.77;93345.56;4988662;28;20053;-91
2023/06/16 07:07:20;;;;;;;4.13;3.45;;;;;;;20.66;44.78;93348.09;5019859;28;20136;-90
2023/06/16 07:09:45;;;;;;;4.13;3.63;;;;;;;20.67;44.78;93339.31;5027901;28;20038;-92
2023/06/16 07:12:11;;;;;;;5.13;4.00;;;;;;;20.69;44.52;93338.81;5000202;28;20045;-91
2023/06/16 07:14:37;;;;;;;6.38;4.18;;;;;;;20.70;44.64;93337.53;5014545;28;20037;-90
2023/06/16 07:17:11;;;;;;;5.13;4.15;;;;;;;20.67;44.46;93344.81;4982128;28;20045;-92
2023/06/16 07:19:36;;;;;;;6.32;3.90;;;;;;;20.71;44.56;93345.25;4996202;28;20041;-90
2023/06/16 07:22:02;;;;;;;6.13;3.90;;;;;;;20.70;44.26;93345.78;4987089;28;20046;-91
2023/06/16 07:24:27;;;;;;;4.95;4.20;;;;;;;20.70;44.46;93346.50;5038258;28;20042;-90
2023/06/16 07:26:53;;;;;;;4.47;4.07;;;;;;;20.70;44.63;93351.25;5022290;28;20050;-91
2023/06/16 07:29:19;;;;;;;4.40;3.85;;;;;;;20.69;44.45;93349.78;5023736;28;20045;-91
2023/06/16 07:31:45;;;;;;;5.50;3.90;;;;;;;20.73;44.73;93345.47;5012181;28;20037;-91
2023/06/16 07:34:10;;;;;;;6.95;4.63;;;;;;;20.73;44.41;93344.72;4997546;28;20041;-90
2023/06/16 07:36:37;;;;;;;9.75;4.85;;;;;;;20.75;44.51;93355.94;4993403;28;20064;-92
2023/06/16 07:39:02;;;;;;;7.32;4.88;;;;;;;20.72;44.37;93341.22;5006615;28;20042;-90
2023/06/16 07:41:28;;;;;;;10.20;4.35;;;;;;;20.73;44.35;93356.44;4995569;28;20057;-91
2023/06/16 07:43:53;;;;;;;8.35;4.30;;;;;;;20.74;44.57;93346.94;4991390;28;20041;-91
2023/06/16 07:46:19;;;;;;;8.98;4.70;;;;;;;20.76;44.52;93351.91;4986655;28;20034;-91
2023/06/16 07:48:50;;;;;;;5.45;4.28;;;;;;;20.76;44.53;93358.16;4987564;28;20586;-91
2023/06/16 07:51:16;;;;;;;5.63;5.03;;;;;;;20.76;44.44;93351.91;4995022;28;20041;-91
2023/06/16 07:53:42;;;;;;;8.70;5.15;;;;;;;20.77;44.70;93345.88;5026588;28;20110;-92
2023/06/16 07:56:09;;;;;;;4.65;4.13;;;;;;;20.78;44.70;93343.88;5003356;28;20406;-90
2023/06/16 07:58:36;;;;;;;7.32;4.78;;;;;;;20.81;44.45;93345.56;4990331;28;20049;-91
2023/06/16 08:01:04;;;;;;;7.18;4.00;;;;;;;20.81;44.45;93334.56;4987110;28;20098;-91
2023/06/16 08:03:30;;;;;;;5.70;4.63;;;;;;;20.82;44.34;93344.28;4986297;28;20037;-91
2023/06/16 08:05:56;;;;;;;6.07;5.03;;;;;;;20.84;44.46;93331.50;5007212;28;20038;-91
2023/06/16 08:08:22;;;;;;;8.02;4.57;;;;;;;20.83;44.37;93327.28;5025685;28;20125;-91
2023/06/16 08:10:47;;;;;;;4.97;4.47;;;;;;;20.81;44.36;93332.56;4985939;28;20439;-91
2023/06/16 08:13:13;;;;;;;5.75;5.00;;;;;;;20.82;44.53;93331.28;4996299;28;20089;-91
2023/06/16 08:15:38;;;;;;;6.45;3.92;;;;;;;20.82;44.51;93325.78;4998520;28;20114;-91
2023/06/16 08:18:04;;;;;;;6.50;4.47;;;;;;;20.83;44.61;93332.03;4972830;28;20039;-90
2023/06/16 08:20:29;;;;;;;8.15;5.03;;;;;;;20.81;44.39;93326.31;5017460;28;20057;-90
2023/06/16 08:22:55;;;;;;;7.43;4.97;;;;;;;20.83;44.52;93334.78;5023885;28;20095;-91
2023/06/16 08:25:20;;;;;;;7.35;4.43;;;;;;;20.81;44.52;93329.06;4980192;28;20129;-91
2023/06/16 08:27:46;;;;;;;6.03;4.47;;;;;;;20.82;44.39;93325.78;4980534;28;20113;-90
2023/06/16 08:30:15;;;;;;;6.30;4.40;;;;;;;20.84;44.28;93328.75;4976894;28;20116;-91
2023/06/16 08:32:41;;;;;;;6.03;4.50;;;;;;;20.85;44.36;93330.22;4977554;28;20065;-90
2023/06/16 08:35:07;;;;;;;9.68;4.85;;;;;;;20.84;44.49;93333.50;4992563;28;20057;-91
2023/06/16 08:37:32;;;;;;;5.82;4.03;;;;;;;20.82;44.50;93330.56;4991563;28;20064;-90
2023/06/16 08:39:58;;;;;;;7.03;4.20;;;;;;;20.81;44.50;93329.06;4963874;28;20045;-91
2023/06/16 08:42:23;;;;;;;6.03;4.35;;;;;;;20.83;44.38;93332.03;5002054;28;20112;-91
2023/06/16 08:44:54;;;;;;;4.72;3.53;;;;;;;20.81;44.45;93320.81;4994626;28;20033;-90
2023/06/16 08:47:19;;;;;;;4.63;3.80;;;;;;;20.82;44.37;93325.06;4994409;28;20053;-91
2023/06/16 08:49:44;;;;;;;7.80;4.20;;;;;;;20.80;44.57;93324.84;4992774;28;20060;-91
2023/06/16 08:52:10;;;;;;;6.53;4.05;;;;;;;20.81;44.55;93327.06;4989523;28;20048;-91
2023/06/16 08:54:47;;;;;;;8.68;4.40;;;;;;;20.79;44.85;93320.63;4993087;28;20038;-91
2023/06/16 08:57:13;;;;;;;5.18;3.65;;;;;;;20.79;44.65;93326.84;4992910;28;20054;-90
2023/06/16 08:59:39;;;;;;;4.68;4.20;;;;;;;20.81;44.47;93315.34;5011771;28;20038;-90
2023/06/16 09:02:04;;;;;;;7.57;4.70;;;;;;;20.80;44.53;93317.34;4996498;28;20739;-91
2023/06/16 09:04:32;;;;;;;9.10;4.40;;;;;;;20.81;44.43;93315.34;4992100;28;20123;-91
2023/06/16 09:06:58;;;;;;;6.88;4.35;;;;;;;20.80;44.72;93328.31;4977141;28;20053;-91
2023/06/16 09:09:24;;;;;;;9.32;5.00;;;;;;;20.80;44.46;93316.59;4960815;28;20047;-91
2023/06/16 09:12:08;;;;;;;3.28;2.92;;;;;;;20.80;44.53;93314.59;4988638;28;20050;-91
2023/06/16 09:14:33;;;;;;;7.90;3.97;;;;;;;20.81;44.62;93321.56;4990467;28;20438;-90
2023/06/16 09:17:01;;;;;;;6.25;3.63;;;;;;;20.82;44.38;93314.81;4994022;28;20053;-90
2023/06/16 09:19:30;;;;;;;10.55;4.97;;;;;;;20.80;44.58;93313.84;4970407;28;20130;-91
2023/06/16 09:21:56;;;;;;;6.78;3.70;;;;;;;20.81;44.61;93313.31;4986846;28;20052;-90
2023/06/16 09:24:28;;;;;;;14.80;4.30;;;;;;;20.80;44.48;93322.09;4995600;28;20065;-91
2023/06/16 09:26:59;;;;;;;4.38;3.70;;;;;;;20.81;44.52;93315.34;4993692;28;20054;-90
2023/06/16 09:29:25;;;;;;;6.00;3.90;;;;;;;20.81;44.59;93302.34;4977797;28;20053;-91
2023/06/16 09:31:51;;;;;;;10.02;3.45;;;;;;;20.81;44.45;93299.59;4990130;28;20042;-91
2023/06/16 09:34:34;;;;;;;4.05;3.05;;;;;;;20.83;44.21;93310.78;4977156;28;20111;-91
2023/06/16 09:36:59;;;;;;;9.75;4.22;;;;;;;20.82;44.37;93301.06;4995353;28;20437;-91
2023/06/16 09:39:25;;;;;;;6.63;3.92;;;;;;;20.83;44.49;93310.78;4989001;28;20054;-90
2023/06/16 09:41:51;;;;;;;8.13;3.47;;;;;;;20.79;44.77;93317.88;4996907;28;20413;-91
2023/06/16 09:44:17;;;;;;;5.68;3.70;;;;;;;20.79;44.16;93306.88;4988296;28;20040;-91
2023/06/16 09:46:43;;;;;;;5.18;3.25;;;;;;;20.77;44.11;93299.19;4991554;28;20044;-91
2023/06/16 09:49:21;;;;;;;3.95;3.53;;;;;;;20.79;43.57;93315.13;5014857;28;20049;-91
2023/06/16 09:51:54;;;;;;;6.32;4.20;;;;;;;20.76;43.73;93316.94;4971918;28;20041;-91
2023/06/16 09:54:23;;;;;;;7.43;4.20;;;;;;;20.76;42.95;93319.69;4979653;28;20042;-91
2023/06/16 09:56:54;;;;;;;8.90;4.43;;;;;;;20.78;43.07;93314.41;4965105;28;20041;-91
2023/06/16 09:59:20;;;;;;;5.80;4.43;;;;;;;20.75;42.58;93320.22;5009739;28;20060;-91
2023/06/16 10:01:46;;;;;;;8.27;5.35;;;;;;;20.74;42.82;93313.97;4994827;28;20125;-92
2023/06/16 10:04:13;;;;;;;9.15;4.65;;;;;;;20.75;42.96;93315.47;5000686;28;20038;-91
2023/06/16 10:06:54;;;;;;;9.30;4.78;;;;;;;20.76;43.15;93313.44;4978897;28;20543;-91
2023/06/16 10:09:28;;;;;;;7.78;4.93;;;;;;;20.77;43.25;93312.94;4992799;28;20050;-92
2023/06/16 10:11:56;;;;;;;8.13;3.95;;;;;;;20.78;42.90;93319.16;5003493;28;20431;-91
2023/06/16 10:14:25;;;;;;;7.95;5.85;;;;;;;20.78;43.02;93321.91;4978735;28;20034;-91
2023/06/16 10:16:51;;;;;;;8.40;4.32;;;;;;;20.80;43.32;93317.34;4989432;28;20053;-92
2023/06/16 10:19:17;;;;;;;5.00;4.00;;;;;;;20.79;43.14;93312.38;4997687;28;20118;-91
2023/06/16 10:21:42;;;;;;;7.90;4.53;;;;;;;20.77;43.48;93310.19;4969131;28;20042;-92
2023/06/16 10:24:08;;;;;;;6.32;4.07;;;;;;;20.78;43.72;93316.41;4973883;28;20402;-92
2023/06/16 10:26:34;;;;;;;8.80;4.88;;;;;;;20.80;43.67;93311.84;5026031;28;20045;-92
2023/06/16 10:28:59;;;;;;;7.45;3.92;;;;;;;20.79;44.04;93309.63;4972127;28;20077;-92
2023/06/16 10:31:27;;;;;;;8.65;4.30;;;;;;;20.80;43.80;93300.84;4987869;28;20049;-92
2023/06/16 10:33:57;;;;;;;5.40;3.70;;;;;;;20.80;43.80;93306.34;4993872;28;20041;-92
2023/06/16 10:36:33;;;;;;;5.82;4.18;;;;;;;20.81;43.71;93298.84;5009741;28;20115;-91
2023/06/16 10:39:07;;;;;;;4.70;3.28;;;;;;;20.80;44.25;93295.34;5027197;28;20045;-92
2023/06/16 10:41:33;;;;;;;9.90;5.22;;;;;;;20.80;43.88;93289.88;4993258;28;20041;-91
2023/06/16 10:44:29;;;;;;;5.03;3.47;;;;;;;20.81;43.92;93293.34;4978684;28;20068;-92
2023/06/16 10:47:12;;;;;;;4.88;3.22;;;;;;;20.78;44.14;93286.94;4953469;28;20050;-91
2023/06/16 10:49:47;;;;;;;6.50;3.55;;;;;;;20.79;44.10;93291.13;4968936;28;20042;-91
2023/06/16 10:52:17;;;;;;;5.75;3.17;;;;;;;20.78;44.14;93294.44;4953191;28;20042;-91
2023/06/16 10:54:51;;;;;;;7.80;4.43;;;;;;;20.80;44.00;93275.38;4953560;28;20961;-91
2023/06/16 10:57:17;;;;;;;6.53;3.72;;;;;;;20.79;43.88;93282.16;4954637;28;20046;-92
2023/06/16 10:59:53;;;;;;;10.38;3.55;;;;;;;20.79;43.96;93276.66;4953531;28;20043;-92
2023/06/16 11:02:30;;;;;;;6.88;4.22;;;;;;;20.77;44.17;93287.47;4968663;28;20049;-91
2023/06/16 11:05:07;;;;;;;7.00;4.07;;;;;;;20.78;44.16;93288.94;4953741;28;20058;-91
2023/06/16 11:07:48;;;;;;;9.52;3.72;;;;;;;20.79;44.14;93279.41;4984420;28;20050;-91
2023/06/16 11:10:17;;;;;;;5.18;3.55;;;;;;;20.79;44.00;93268.41;4953391;28;20311;-92
2023/06/16 11:12:43;;;;;;;4.13;3.72;;;;;;;20.80;44.04;93272.63;4969655;28;20046;-91
2023/06/16 11:15:08;;;;;;;4.47;3.30;;;;;;;20.79;44.13;93271.16;4950279;28;20050;-92
2023/06/16 11:17:34;;;;;;;5.78;3.50;;;;;;;20.79;44.20;93277.41;4967062;28;20189;-91
2023/06/16 11:20:01;;;;;;;3.47;3.08;;;;;;;20.79;44.21;93266.41;4970033;28;20066;-91
2023/06/16 11:22:30;;;;;;;4.70;3.78;;;;;;;20.78;44.03;93264.94;4955208;28;20035;-91
2023/06/16 11:24:56;;;;;;;5.10;3.13;;;;;;;20.80;44.03;93270.63;4974093;28;20038;-91
2023/06/16 11:27:21;;;;;;;3.95;2.88;;;;;;;20.80;44.23;93275.38;4979094;28;20111;-92
2023/06/16 11:29:47;;;;;;;4.43;3.53;;;;;;;20.81;43.99;93285.84;4990647;28;20030;-91
2023/06/16 11:32:15;;;;;;;6.55;3.90;;;;;;;20.80;44.25;93276.13;4973738;28;20045;-90
2023/06/16 11:34:41;;;;;;;4.10;3.35;;;;;;;20.79;44.12;93271.91;4974574;28;20042;-91